Hauptseite
METAR-TAF:

METAR-TAF

Flughäfen :

Flughafen Vientiane

Vientiane, Laos

Breite: 17-57N, Länge: 102-34E, Höhe: 171 m

Beobachtung

Neuester Wetterbericht von vor 22 Minuten, um 12:30 UTC
Wind 2 kt aus West/Südwest
Temperatur 26°C
Luftfeuchtigkeit 79%
Luftdruck 1008 hPa
Sichtweite: 6000 m
Durchbrochene Bewölkung in der Höhe von 1600 ft

METAR: VLVT 211230Z 24002KT 6000 BKN016 26/22 Q1008 NOSIG

Zeit: 19:52 (12:52 UTC)

Prognose

Neuester Wetterbericht von vor 1 Stunde und 52 Minuten, um 11:00 UTC
Gültige Prognose vom 21 um 12 UTC bis 22 um 12 UTC
Wind 4 kt aus West
Sichtweite: 5000 m
Aufgelockert bewölkt in der Höhe von 1600 ft
Durchbrochene Bewölkung in der Höhe von 8300 ft
feuchter Dunst,

TAF: VLVT 211100Z 2112/2212 27004KT 5000 BR SCT016 BKN083

Wetterbeobachtungen und Prognosen von mehr als 4000 Flughäfen (METAR und TAF Bericht).

Die verfügbaren Stationen werden durch gelbe und rote Markierungen auf der Karte dargestellt.

Führen Sie die Maus auf sie, um den Namen der Station zu sehen.

Darauf klicken, um die Beobachtung von Wetterbeobachtungen und Prognosen zu sehen.

Um die Karte zu ändern : klicken Sie auf den grünen Tasten mit einem schwarzen Kreuz Zum Vergrößern, auf den grünen Button mit einem Gedankenstrich zu verkleinern, oder auf die grünen Pfeile für benachbarte Karten.


METAR-TAF: